createdAt,value
2023-05-01T00:00:16.064Z,60.50
2023-05-01T00:03:43.446Z,61.51
2023-05-01T00:06:47.441Z,63.36
2023-05-01T00:09:51.795Z,63.90
2023-05-01T00:12:55.645Z,66.19
2023-05-01T00:16:00.597Z,67.14
2023-05-01T00:19:05.128Z,67.09
2023-05-01T00:22:08.811Z,66.58
2023-05-01T00:25:13.120Z,66.38
2023-05-01T00:28:16.686Z,65.98
2023-05-01T00:31:22.188Z,66.69
2023-05-01T00:34:25.898Z,68.24
2023-05-01T00:37:29.949Z,68.73
2023-05-01T00:40:33.908Z,68.52
2023-05-01T00:43:38.958Z,67.75
2023-05-01T00:46:43.971Z,67.13
2023-05-01T00:49:49.342Z,67.39
2023-05-01T00:52:52.868Z,69.29
2023-05-01T00:55:59.460Z,71.11
2023-05-01T00:59:02.974Z,70.86
2023-05-01T01:02:08.360Z,68.75
2023-05-01T01:05:11.979Z,66.83
2023-05-01T01:08:25.151Z,67.56
2023-05-01T01:11:39.383Z,66.67
2023-05-01T01:14:51.872Z,66.61
2023-05-01T01:18:05.412Z,67.22
2023-05-01T01:21:15.786Z,66.18
2023-05-01T01:24:37.443Z,66.35
2023-05-01T01:28:15.104Z,65.91
2023-05-01T01:31:23.644Z,65.17
2023-05-01T01:34:35.384Z,65.36
2023-05-01T01:37:44.168Z,64.19
2023-05-01T01:40:56.760Z,63.98
2023-05-01T01:44:04.071Z,63.90
2023-05-01T01:47:12.214Z,64.74
2023-05-01T01:50:19.238Z,64.47
2023-05-01T01:53:25.191Z,64.15
2023-05-01T01:56:33.027Z,64.01
2023-05-01T01:59:36.930Z,63.92
2023-05-01T02:02:42.330Z,65.01
2023-05-01T02:05:50.473Z,64.18
2023-05-01T02:08:55.592Z,65.27
2023-05-01T02:12:02.412Z,65.58
2023-05-01T02:15:09.413Z,66.28
2023-05-01T02:18:17.017Z,67.03
2023-05-01T02:21:23.091Z,66.98
2023-05-01T02:24:30.541Z,68.56
2023-05-01T02:27:39.512Z,68.25
2023-05-01T02:30:43.504Z,68.15
2023-05-01T02:33:47.024Z,67.18
2023-05-01T02:36:52.477Z,66.78
2023-05-01T02:39:57.244Z,67.05
2023-05-01T02:43:06.826Z,65.80
2023-05-01T02:46:13.742Z,66.60
2023-05-01T02:49:19.731Z,66.12
2023-05-01T02:52:25.074Z,65.94
2023-05-01T02:55:38.838Z,66.53
2023-05-01T02:58:43.195Z,65.63
2023-05-01T03:01:47.421Z,64.57
2023-05-01T03:04:50.871Z,64.54
2023-05-01T03:07:56.418Z,64.27
2023-05-01T03:10:59.878Z,64.15
2023-05-01T03:14:03.743Z,64.48
2023-05-01T03:18:23.525Z,65.43
2023-05-01T03:21:27.592Z,64.40
2023-05-01T03:24:32.660Z,64.15
2023-05-01T03:27:36.825Z,63.87
2023-05-01T03:30:40.244Z,63.72
2023-05-01T03:33:44.205Z,63.58
2023-05-01T03:36:47.924Z,63.56
2023-05-01T03:39:53.241Z,64.12
2023-05-01T03:43:26.313Z,64.38
2023-05-01T03:46:32.171Z,64.52
2023-05-01T03:49:35.864Z,64.99
2023-05-01T03:52:39.686Z,64.17
2023-05-01T03:55:45.101Z,64.90
2023-05-01T03:58:50.811Z,64.74
2023-05-01T04:01:54.811Z,65.98
2023-05-01T04:04:59.224Z,67.63
2023-05-01T04:08:04.390Z,66.45
2023-05-01T04:11:11.014Z,65.80
2023-05-01T04:14:14.702Z,65.39
2023-05-01T04:17:18.704Z,65.04
2023-05-01T04:20:22.491Z,65.57
2023-05-01T04:23:26.779Z,66.97
2023-05-01T04:26:35.820Z,66.65
2023-05-01T04:29:41.806Z,66.02
2023-05-01T04:32:45.872Z,67.12
2023-05-01T04:35:50.186Z,65.94
2023-05-01T04:38:54.068Z,65.79
2023-05-01T04:41:59.452Z,65.41
2023-05-01T04:45:04.210Z,65.50
2023-05-01T04:48:11.989Z,65.12
2023-05-01T04:51:16.008Z,65.24
2023-05-01T04:54:19.773Z,64.75
2023-05-01T04:57:25.520Z,65.73
2023-05-01T05:00:30.861Z,64.71
2023-05-01T05:03:35.917Z,64.03
2023-05-01T05:06:39.965Z,64.72
2023-05-01T05:09:49.530Z,63.62
2023-05-01T05:12:54.872Z,63.14
2023-05-01T05:15:58.535Z,62.74
2023-05-01T05:19:03.644Z,62.13
2023-05-01T05:22:13.657Z,62.08
2023-05-01T05:25:38.196Z,62.05
2023-05-01T05:28:43.085Z,61.91
2023-05-01T05:31:47.385Z,62.53
2023-05-01T05:34:51.787Z,61.86
2023-05-01T05:37:56.038Z,61.92
2023-05-01T05:41:01.088Z,61.56
2023-05-01T05:44:09.102Z,62.20
2023-05-01T05:47:12.748Z,61.34
2023-05-01T05:50:17.184Z,61.03
2023-05-01T05:53:28.142Z,60.88
2023-05-01T05:56:39.019Z,61.49
2023-05-01T05:59:45.507Z,61.03
2023-05-01T06:02:51.728Z,60.50
2023-05-01T06:05:57.060Z,59.30
2023-05-01T06:09:02.374Z,58.78
2023-05-01T06:12:07.297Z,58.11
2023-05-01T06:15:17.215Z,57.29
2023-05-01T06:18:30.212Z,56.62
2023-05-01T06:21:35.610Z,56.00
2023-05-01T06:24:39.826Z,55.54
2023-05-01T06:27:46.044Z,54.75
2023-05-01T06:30:51.364Z,53.97
2023-05-01T06:33:57.209Z,54.00
2023-05-01T06:37:18.260Z,52.61
2023-05-01T06:40:22.711Z,50.83
2023-05-01T06:43:30.571Z,49.17
2023-05-01T06:46:36.015Z,47.00
2023-05-01T06:49:39.908Z,44.50
2023-05-01T06:52:45.656Z,44.05
2023-05-01T06:55:49.255Z,42.71
2023-05-01T06:58:53.484Z,40.40
2023-05-01T07:01:58.360Z,39.80
2023-05-01T07:05:02.472Z,40.20
2023-05-01T07:08:06.657Z,39.36
2023-05-01T07:11:10.952Z,36.99
2023-05-01T07:14:14.457Z,36.62
2023-05-01T07:17:19.781Z,33.95
2023-05-01T07:20:23.508Z,33.15
2023-05-01T07:23:27.561Z,32.59
2023-05-01T07:26:31.078Z,31.66
2023-05-01T07:29:37.241Z,31.92
2023-05-01T07:32:44.465Z,31.43
2023-05-01T07:35:48.281Z,30.63
2023-05-01T07:38:51.893Z,29.35
2023-05-01T07:41:58.264Z,30.02
2023-05-01T07:45:01.775Z,29.46
2023-05-01T07:48:07.588Z,28.44
2023-05-01T07:51:11.222Z,27.56
2023-05-01T07:54:16.508Z,26.00
2023-05-01T07:57:20.005Z,27.26
2023-05-01T08:00:23.920Z,27.57
2023-05-01T08:03:30.776Z,27.35
2023-05-01T08:06:54.787Z,27.05
2023-05-01T08:10:00.475Z,29.05
2023-05-01T08:13:04.781Z,30.02
2023-05-01T08:16:09.099Z,32.33
2023-05-01T08:19:16.061Z,33.30
2023-05-01T08:22:19.460Z,33.87
2023-05-01T08:25:24.667Z,34.68
2023-05-01T08:28:28.261Z,35.54
2023-05-01T08:31:32.294Z,36.00
2023-05-01T08:34:37.781Z,35.92
2023-05-01T08:37:41.615Z,35.88
2023-05-01T08:40:52.365Z,37.38
2023-05-01T08:44:03.244Z,37.28
2023-05-01T08:47:13.767Z,37.63
2023-05-01T08:50:19.608Z,38.26
2023-05-01T08:53:25.175Z,39.60
2023-05-01T08:56:31.307Z,39.45
2023-05-01T08:59:35.816Z,38.03
2023-05-01T09:02:42.452Z,39.71
2023-05-01T09:05:47.732Z,39.85
2023-05-01T09:09:16.708Z,38.94
2023-05-01T09:12:25.929Z,40.13
2023-05-01T09:15:31.458Z,40.75
2023-05-01T09:18:35.953Z,39.61
2023-05-01T09:21:42.707Z,37.71
2023-05-01T09:24:46.992Z,37.61
2023-05-01T09:27:50.836Z,37.08
2023-05-01T09:30:54.822Z,35.45
2023-05-01T09:34:00.229Z,37.78
2023-05-01T09:37:05.244Z,37.28
2023-05-01T09:40:12.017Z,38.84
2023-05-01T09:43:17.178Z,38.36
2023-05-01T09:46:22.888Z,38.66
2023-05-01T09:49:45.864Z,38.95
2023-05-01T09:52:53.441Z,39.24
2023-05-01T09:56:02.368Z,38.73
2023-05-01T09:59:17.310Z,40.65
2023-05-01T10:02:29.972Z,40.14
2023-05-01T10:05:44.361Z,39.27
2023-05-01T10:08:51.382Z,39.67
2023-05-01T10:11:57.740Z,40.85
2023-05-01T10:15:10.775Z,40.31
2023-05-01T10:18:19.451Z,40.62
2023-05-01T10:21:23.540Z,40.51
2023-05-01T10:24:28.709Z,40.13
2023-05-01T10:27:33.536Z,39.04
2023-05-01T10:30:38.249Z,41.11
2023-05-01T10:33:42.880Z,39.08
2023-05-01T10:36:50.509Z,37.84
2023-05-01T10:39:55.681Z,38.11
2023-05-01T10:43:21.159Z,38.42
2023-05-01T10:46:29.914Z,39.35
2023-05-01T10:50:07.385Z,41.08
2023-05-01T10:53:18.295Z,40.72
2023-05-01T10:56:44.362Z,40.91
2023-05-01T11:00:13.625Z,41.78
2023-05-01T11:03:36.645Z,40.41
2023-05-01T11:07:18.008Z,41.90
2023-05-01T11:10:28.349Z,41.33
2023-05-01T11:14:00.875Z,40.97
2023-05-01T11:17:04.617Z,40.01
2023-05-01T11:20:09.478Z,40.15
2023-05-01T11:23:18.824Z,40.35
2023-05-01T11:26:24.859Z,39.34
2023-05-01T11:29:42.267Z,40.75
2023-05-01T11:32:48.196Z,39.58
2023-05-01T11:36:01.180Z,40.07
2023-05-01T11:39:06.317Z,39.44
2023-05-01T11:42:10.991Z,40.30
2023-05-01T11:45:35.316Z,39.85
2023-05-01T11:48:41.834Z,38.91
2023-05-01T11:51:45.691Z,39.51
2023-05-01T11:54:49.670Z,39.51
2023-05-01T11:57:54.848Z,38.37
2023-05-01T12:01:05.856Z,38.13
2023-05-01T12:04:10.087Z,38.86
2023-05-01T12:07:21.970Z,38.84
2023-05-01T12:10:25.933Z,38.24
2023-05-01T12:13:30.123Z,38.25
2023-05-01T12:16:36.316Z,38.08
2023-05-01T12:19:49.842Z,38.44
2023-05-01T12:22:53.863Z,38.06
2023-05-01T12:25:58.438Z,37.82
2023-05-01T12:29:03.227Z,38.51
2023-05-01T12:32:09.594Z,38.51
2023-05-01T12:35:16.978Z,37.59
2023-05-01T12:38:22.702Z,37.85
2023-05-01T12:41:38.185Z,37.53
2023-05-01T12:44:44.275Z,37.69
2023-05-01T12:47:49.687Z,37.34
2023-05-01T12:50:55.622Z,38.65
2023-05-01T12:53:59.349Z,37.85
2023-05-01T12:57:08.182Z,37.58
2023-05-01T13:00:13.402Z,38.26
2023-05-01T13:03:25.077Z,38.53
2023-05-01T13:06:34.697Z,38.13
2023-05-01T13:09:39.385Z,36.66
2023-05-01T13:12:46.344Z,37.78
2023-05-01T13:15:50.158Z,37.34
2023-05-01T13:18:55.632Z,37.43
2023-05-01T13:22:00.221Z,37.16
2023-05-01T13:25:05.232Z,36.74
2023-05-01T13:28:09.404Z,36.90
2023-05-01T13:31:14.635Z,37.07
2023-05-01T13:34:25.657Z,37.27
2023-05-01T13:37:29.298Z,36.54
2023-05-01T13:40:36.263Z,35.78
2023-05-01T13:43:41.240Z,36.37
2023-05-01T13:46:45.452Z,36.08
2023-05-01T13:49:50.769Z,35.95
2023-05-01T13:52:55.051Z,35.89
2023-05-01T13:55:58.746Z,35.69
2023-05-01T13:59:03.096Z,35.89
2023-05-01T14:02:20.684Z,35.49
2023-05-01T14:08:32.632Z,34.26
2023-05-01T14:11:42.114Z,33.34
2023-05-01T14:14:49.057Z,33.38
2023-05-01T14:17:53.599Z,33.28
2023-05-01T14:21:00.700Z,32.52
2023-05-01T14:24:05.131Z,34.08
2023-05-01T14:27:10.084Z,34.75
2023-05-01T14:30:20.073Z,34.87
2023-05-01T14:33:23.806Z,34.02
2023-05-01T14:36:31.264Z,33.30
2023-05-01T14:39:34.887Z,33.49
2023-05-01T14:42:43.255Z,32.57
2023-05-01T14:45:49.764Z,33.59
2023-05-01T14:48:54.207Z,33.93
2023-05-01T14:51:59.173Z,33.32
2023-05-01T14:55:03.144Z,33.04
2023-05-01T14:58:06.881Z,33.65
2023-05-01T15:01:11.216Z,33.38
2023-05-01T15:04:14.898Z,33.41
2023-05-01T15:07:20.608Z,33.30
2023-05-01T15:10:24.332Z,34.00
2023-05-01T15:13:28.971Z,33.41
2023-05-01T15:16:32.774Z,33.75
2023-05-01T15:19:37.481Z,33.12
2023-05-01T15:22:42.290Z,32.86
2023-05-01T15:25:48.052Z,35.35
2023-05-01T15:28:51.907Z,35.70
2023-05-01T15:32:08.196Z,36.41
2023-05-01T15:35:16.687Z,36.29
2023-05-01T15:38:22.199Z,36.27
2023-05-01T15:41:25.757Z,35.98
2023-05-01T15:44:29.715Z,34.96
2023-05-01T15:47:33.633Z,35.07
2023-05-01T15:50:37.800Z,34.87
2023-05-01T15:53:42.935Z,34.93
2023-05-01T15:56:47.379Z,35.17
2023-05-01T15:59:54.081Z,35.80
2023-05-01T16:02:58.457Z,35.82
2023-05-01T16:06:03.008Z,35.43
2023-05-01T16:09:08.829Z,35.51
2023-05-01T16:12:12.594Z,35.35
2023-05-01T16:15:17.070Z,35.11
2023-05-01T16:18:24.571Z,35.32
2023-05-01T16:21:29.242Z,35.51
2023-05-01T16:24:35.997Z,35.39
2023-05-01T16:27:42.444Z,35.65
2023-05-01T16:30:46.752Z,35.76
2023-05-01T16:33:51.864Z,35.65
2023-05-01T16:36:56.478Z,35.46
2023-05-01T16:40:04.619Z,35.47
2023-05-01T16:43:08.041Z,36.08
2023-05-01T16:46:12.308Z,35.53
2023-05-01T16:49:18.878Z,35.66
2023-05-01T16:52:22.761Z,36.15
2023-05-01T16:55:28.414Z,36.55
2023-05-01T16:58:32.498Z,36.69
2023-05-01T17:01:36.332Z,37.21
2023-05-01T17:04:40.397Z,37.45
2023-05-01T17:07:44.321Z,37.67
2023-05-01T17:10:50.079Z,38.19
2023-05-01T17:13:53.636Z,37.95
2023-05-01T17:16:58.736Z,38.17
2023-05-01T17:20:02.463Z,38.16
2023-05-01T17:23:06.840Z,38.94
2023-05-01T17:26:13.589Z,38.61
2023-05-01T17:29:17.767Z,38.71
2023-05-01T17:32:35.730Z,39.16
2023-05-01T17:35:41.937Z,39.08
2023-05-01T17:38:45.650Z,39.46
2023-05-01T17:41:51.315Z,39.46
2023-05-01T17:44:54.694Z,39.38
2023-05-01T17:48:00.942Z,39.27
2023-05-01T17:51:04.803Z,39.60
2023-05-01T17:54:08.714Z,41.35
2023-05-01T17:57:13.872Z,41.68
2023-05-01T18:00:18.532Z,42.02
2023-05-01T18:03:23.618Z,42.60
2023-05-01T18:06:27.543Z,43.81
2023-05-01T18:09:31.144Z,44.45
2023-05-01T18:12:36.598Z,44.89
2023-05-01T18:15:40.172Z,45.56
2023-05-01T18:18:44.077Z,45.44
2023-05-01T18:21:47.599Z,45.10
2023-05-01T18:24:51.562Z,44.69
2023-05-01T18:27:57.538Z,45.51
2023-05-01T18:31:01.811Z,45.42
2023-05-01T18:34:06.486Z,45.18
2023-05-01T18:37:10.328Z,44.73
2023-05-01T18:40:14.539Z,44.35
2023-05-01T18:43:19.936Z,44.81
2023-05-01T18:46:24.457Z,44.34
2023-05-01T18:49:28.297Z,44.94
2023-05-01T18:52:32.199Z,44.19
2023-05-01T18:55:36.678Z,44.40
2023-05-01T18:58:41.809Z,44.38
2023-05-01T19:01:47.704Z,43.97
2023-05-01T19:04:57.561Z,44.21
2023-05-01T19:08:05.189Z,44.21
2023-05-01T19:11:08.650Z,44.70
2023-05-01T19:14:14.062Z,44.54
2023-05-01T19:17:17.680Z,44.46
2023-05-01T19:20:22.030Z,44.35
2023-05-01T19:23:27.233Z,44.29
2023-05-01T19:26:31.063Z,44.64
2023-05-01T19:29:35.972Z,44.37
2023-05-01T19:32:40.113Z,44.88
2023-05-01T19:35:43.763Z,44.91
2023-05-01T19:38:47.746Z,46.04
2023-05-01T19:41:52.509Z,46.28
2023-05-01T19:44:58.221Z,46.77
2023-05-01T19:48:02.538Z,47.67
2023-05-01T19:51:06.600Z,48.38
2023-05-01T19:54:10.317Z,47.81
2023-05-01T19:57:17.123Z,47.46
2023-05-01T20:00:22.387Z,47.11
2023-05-01T20:03:26.599Z,46.74
2023-05-01T20:06:30.388Z,47.64
2023-05-01T20:09:34.526Z,46.61
2023-05-01T20:12:38.386Z,46.23
2023-05-01T20:15:43.566Z,46.43
2023-05-01T20:18:46.926Z,46.94
2023-05-01T20:21:51.100Z,46.60
2023-05-01T20:24:55.932Z,47.44
2023-05-01T20:28:00.194Z,48.06
2023-05-01T20:31:05.148Z,48.78
2023-05-01T20:34:09.227Z,50.75
2023-05-01T20:37:12.961Z,49.42
2023-05-01T20:40:17.125Z,50.92
2023-05-01T20:43:20.601Z,51.65
2023-05-01T20:46:26.148Z,51.37
2023-05-01T20:49:30.489Z,51.46
2023-05-01T20:52:35.499Z,50.96
2023-05-01T20:55:39.663Z,51.09
2023-05-01T20:58:43.577Z,50.72
2023-05-01T21:01:49.741Z,50.62
2023-05-01T21:04:53.996Z,50.41
2023-05-01T21:07:58.330Z,49.98
2023-05-01T21:11:03.661Z,50.36
2023-05-01T21:14:07.353Z,50.52
2023-05-01T21:17:13.280Z,50.81
2023-05-01T21:20:17.825Z,50.92
2023-05-01T21:23:21.626Z,49.78
2023-05-01T21:26:25.289Z,50.07
2023-05-01T21:29:29.724Z,49.99
2023-05-01T21:32:40.499Z,50.83
2023-05-01T21:35:46.974Z,51.00
2023-05-01T21:38:51.386Z,50.84
2023-05-01T21:42:05.027Z,50.70
2023-05-01T21:45:10.234Z,51.96
2023-05-01T21:48:17.718Z,52.81
2023-05-01T21:51:27.205Z,53.24
2023-05-01T21:54:32.813Z,52.10
2023-05-01T21:57:36.706Z,52.05
2023-05-01T22:00:41.815Z,53.21
2023-05-01T22:03:48.295Z,52.62
2023-05-01T22:06:52.237Z,53.18
2023-05-01T22:09:55.850Z,52.40
2023-05-01T22:13:00.027Z,52.32
2023-05-01T22:16:04.515Z,52.36
2023-05-01T22:19:11.926Z,51.43
2023-05-01T22:22:15.382Z,51.22
2023-05-01T22:25:19.220Z,50.65
2023-05-01T22:28:22.822Z,50.12
2023-05-01T22:31:26.838Z,49.76
2023-05-01T22:34:31.737Z,49.69
2023-05-01T22:37:35.691Z,49.76
2023-05-01T22:40:39.228Z,49.59
2023-05-01T22:43:43.077Z,49.82
2023-05-01T22:46:47.156Z,50.67
2023-05-01T22:49:52.565Z,51.89
2023-05-01T22:52:56.150Z,51.21
2023-05-01T22:56:00.004Z,51.75
2023-05-01T22:59:03.581Z,51.91
2023-05-01T23:02:07.511Z,53.24
2023-05-01T23:05:13.382Z,52.91
2023-05-01T23:08:17.183Z,52.49
2023-05-01T23:11:21.375Z,53.15
2023-05-01T23:14:25.603Z,52.64
2023-05-01T23:17:34.990Z,52.46
2023-05-01T23:20:41.789Z,53.49
2023-05-01T23:23:46.574Z,53.76
2023-05-01T23:26:50.562Z,54.86
2023-05-01T23:29:56.551Z,53.90
2023-05-01T23:33:00.980Z,53.97
2023-05-01T23:36:10.288Z,53.43
2023-05-01T23:39:16.442Z,54.19
2023-05-01T23:42:20.369Z,52.98
2023-05-01T23:45:24.517Z,52.71
2023-05-01T23:48:28.147Z,52.85
2023-05-01T23:51:34.144Z,52.94
2023-05-01T23:54:37.620Z,52.63
2023-05-01T23:57:41.741Z,52.65
